Lindbergh, Missouri
Current Conditions -  °F | °C
As of 4:04 PM on Monday 22 Dec 2014 (Local Time) from KCOU Reporting Station
Light Rain Light Rain  
Wind Chill: 42°   Ceiling: 400
Heat Index: 47°   Visibility: 1.2mi
Dew Point: 46°   Wind: 10mph
Humidity: 97%   Direction: 160°SSE
Pressure: 29.49"   Gusts: NA
Location:  39.0235°N, 92.2896°W
Report Text: KCOU 222204Z 16009KT 1 1/4SM -RA BR BKN004 OVC008 08/08 A2949 RMK AO2 P0001 T00830078
Loading
Personal Weather Stations






























Interactive Weather Map New forecast layout! Learn more

10-Day Weather Forecast

Advertisements
Track Severe Weather on mobile